sensor_id;sensor_type;location;lat;lon;timestamp;P1;durP1;ratioP1;P2;durP2;ratioP2
3066;SDS011;1544;48.834;9.194;2023-09-19T00:01:57;1.23;;;0.67;;
3066;SDS011;1544;48.834;9.194;2023-09-19T00:04:34;0.90;;;0.70;;
3066;SDS011;1544;48.834;9.194;2023-09-19T00:07:10;3.77;;;0.80;;
3066;SDS011;1544;48.834;9.194;2023-09-19T00:09:46;0.93;;;0.70;;
3066;SDS011;1544;48.834;9.194;2023-09-19T00:12:22;2.20;;;1.00;;
3066;SDS011;1544;48.834;9.194;2023-09-19T00:14:57;0.70;;;0.70;;
3066;SDS011;1544;48.834;9.194;2023-09-19T00:17:36;1.00;;;0.70;;
3066;SDS011;1544;48.834;9.194;2023-09-19T00:20:12;1.37;;;0.97;;
3066;SDS011;1544;48.834;9.194;2023-09-19T00:22:52;0.97;;;0.80;;
3066;SDS011;1544;48.834;9.194;2023-09-19T00:25:28;0.60;;;0.60;;
3066;SDS011;1544;48.834;9.194;2023-09-19T00:28:04;2.70;;;0.80;;
3066;SDS011;1544;48.834;9.194;2023-09-19T00:30:42;1.53;;;0.80;;
3066;SDS011;1544;48.834;9.194;2023-09-19T00:33:19;0.80;;;0.80;;
3066;SDS011;1544;48.834;9.194;2023-09-19T00:35:56;0.80;;;0.67;;
3066;SDS011;1544;48.834;9.194;2023-09-19T00:38:33;0.67;;;0.67;;
3066;SDS011;1544;48.834;9.194;2023-09-19T00:41:09;0.90;;;0.70;;
3066;SDS011;1544;48.834;9.194;2023-09-19T00:43:45;0.70;;;0.70;;
3066;SDS011;1544;48.834;9.194;2023-09-19T00:46:21;0.70;;;0.70;;
3066;SDS011;1544;48.834;9.194;2023-09-19T00:48:57;0.63;;;0.63;;
3066;SDS011;1544;48.834;9.194;2023-09-19T00:51:34;0.70;;;0.70;;
3066;SDS011;1544;48.834;9.194;2023-09-19T00:54:11;0.70;;;0.70;;
3066;SDS011;1544;48.834;9.194;2023-09-19T00:56:53;0.90;;;0.60;;
3066;SDS011;1544;48.834;9.194;2023-09-19T00:59:29;0.80;;;0.50;;
3066;SDS011;1544;48.834;9.194;2023-09-19T01:02:06;0.70;;;0.60;;
3066;SDS011;1544;48.834;9.194;2023-09-19T01:04:42;1.07;;;0.80;;
3066;SDS011;1544;48.834;9.194;2023-09-19T01:07:19;1.37;;;0.60;;
3066;SDS011;1544;48.834;9.194;2023-09-19T01:09:58;0.63;;;0.60;;
3066;SDS011;1544;48.834;9.194;2023-09-19T01:29:12;0.50;;;0.50;;
3066;SDS011;1544;48.834;9.194;2023-09-19T01:32:19;0.70;;;0.67;;
3066;SDS011;1544;48.834;9.194;2023-09-19T01:34:59;0.70;;;0.70;;
3066;SDS011;1544;48.834;9.194;2023-09-19T01:37:41;3.80;;;0.70;;
3066;SDS011;1544;48.834;9.194;2023-09-19T01:40:19;0.70;;;0.50;;
3066;SDS011;1544;48.834;9.194;2023-09-19T01:43:04;0.60;;;0.60;;
3066;SDS011;1544;48.834;9.194;2023-09-19T01:46:12;0.50;;;0.50;;
3066;SDS011;1544;48.834;9.194;2023-09-19T01:51:53;1.03;;;0.60;;
3066;SDS011;1544;48.834;9.194;2023-09-19T01:54:51;0.90;;;0.60;;
3066;SDS011;1544;48.834;9.194;2023-09-19T01:57:35;0.60;;;0.50;;
3066;SDS011;1544;48.834;9.194;2023-09-19T02:00:27;0.70;;;0.70;;
3066;SDS011;1544;48.834;9.194;2023-09-19T02:03:08;0.87;;;0.50;;
3066;SDS011;1544;48.834;9.194;2023-09-19T02:05:49;1.07;;;0.67;;
3066;SDS011;1544;48.834;9.194;2023-09-19T02:08:26;1.70;;;0.67;;
3066;SDS011;1544;48.834;9.194;2023-09-19T02:11:02;0.50;;;0.50;;
3066;SDS011;1544;48.834;9.194;2023-09-19T02:13:38;0.90;;;0.70;;
3066;SDS011;1544;48.834;9.194;2023-09-19T02:16:16;0.50;;;0.50;;
3066;SDS011;1544;48.834;9.194;2023-09-19T02:18:55;2.30;;;0.70;;
3066;SDS011;1544;48.834;9.194;2023-09-19T02:21:31;0.80;;;0.70;;
3066;SDS011;1544;48.834;9.194;2023-09-19T02:24:07;0.50;;;0.50;;
3066;SDS011;1544;48.834;9.194;2023-09-19T02:26:45;0.60;;;0.60;;
3066;SDS011;1544;48.834;9.194;2023-09-19T02:29:22;1.00;;;0.63;;
3066;SDS011;1544;48.834;9.194;2023-09-19T02:31:58;0.77;;;0.67;;
3066;SDS011;1544;48.834;9.194;2023-09-19T02:34:35;0.70;;;0.70;;
3066;SDS011;1544;48.834;9.194;2023-09-19T02:37:11;1.20;;;0.87;;
3066;SDS011;1544;48.834;9.194;2023-09-19T02:39:48;0.50;;;0.50;;
3066;SDS011;1544;48.834;9.194;2023-09-19T02:42:24;0.67;;;0.67;;
3066;SDS011;1544;48.834;9.194;2023-09-19T02:45:01;0.50;;;0.50;;
3066;SDS011;1544;48.834;9.194;2023-09-19T02:47:41;0.50;;;0.50;;
3066;SDS011;1544;48.834;9.194;2023-09-19T02:50:17;0.80;;;0.50;;
3066;SDS011;1544;48.834;9.194;2023-09-19T02:52:53;1.13;;;0.60;;
3066;SDS011;1544;48.834;9.194;2023-09-19T02:55:29;0.93;;;0.70;;
3066;SDS011;1544;48.834;9.194;2023-09-19T02:58:05;0.60;;;0.60;;
3066;SDS011;1544;48.834;9.194;2023-09-19T03:00:50;0.60;;;0.60;;
3066;SDS011;1544;48.834;9.194;2023-09-19T03:03:27;0.80;;;0.63;;
3066;SDS011;1544;48.834;9.194;2023-09-19T03:06:05;0.60;;;0.60;;
3066;SDS011;1544;48.834;9.194;2023-09-19T03:08:44;0.80;;;0.60;;
3066;SDS011;1544;48.834;9.194;2023-09-19T03:11:22;1.17;;;0.70;;
3066;SDS011;1544;48.834;9.194;2023-09-19T03:14:01;0.70;;;0.60;;
3066;SDS011;1544;48.834;9.194;2023-09-19T03:16:37;0.57;;;0.53;;
3066;SDS011;1544;48.834;9.194;2023-09-19T03:19:14;1.30;;;0.50;;
3066;SDS011;1544;48.834;9.194;2023-09-19T03:21:52;0.83;;;0.50;;
3066;SDS011;1544;48.834;9.194;2023-09-19T03:24:30;0.60;;;0.60;;
3066;SDS011;1544;48.834;9.194;2023-09-19T03:27:08;0.87;;;0.67;;
3066;SDS011;1544;48.834;9.194;2023-09-19T03:29:45;1.43;;;0.93;;
3066;SDS011;1544;48.834;9.194;2023-09-19T03:32:22;0.87;;;0.60;;
3066;SDS011;1544;48.834;9.194;2023-09-19T03:34:58;0.70;;;0.60;;
3066;SDS011;1544;48.834;9.194;2023-09-19T03:37:34;0.70;;;0.70;;
3066;SDS011;1544;48.834;9.194;2023-09-19T03:40:10;0.70;;;0.60;;
3066;SDS011;1544;48.834;9.194;2023-09-19T03:42:47;2.90;;;0.60;;
3066;SDS011;1544;48.834;9.194;2023-09-19T03:45:23;0.63;;;0.63;;
3066;SDS011;1544;48.834;9.194;2023-09-19T03:48:00;1.97;;;0.80;;
3066;SDS011;1544;48.834;9.194;2023-09-19T03:50:36;0.60;;;0.60;;
3066;SDS011;1544;48.834;9.194;2023-09-19T03:53:13;0.70;;;0.60;;
3066;SDS011;1544;48.834;9.194;2023-09-19T03:55:49;0.83;;;0.70;;
3066;SDS011;1544;48.834;9.194;2023-09-19T03:58:26;1.00;;;0.60;;
3066;SDS011;1544;48.834;9.194;2023-09-19T04:01:02;0.83;;;0.80;;
3066;SDS011;1544;48.834;9.194;2023-09-19T04:03:39;0.70;;;0.70;;
3066;SDS011;1544;48.834;9.194;2023-09-19T04:06:22;0.80;;;0.80;;
3066;SDS011;1544;48.834;9.194;2023-09-19T04:08:58;2.30;;;0.80;;
3066;SDS011;1544;48.834;9.194;2023-09-19T04:11:34;1.50;;;0.80;;
3066;SDS011;1544;48.834;9.194;2023-09-19T04:14:10;1.10;;;0.77;;
3066;SDS011;1544;48.834;9.194;2023-09-19T04:16:46;1.47;;;0.87;;
3066;SDS011;1544;48.834;9.194;2023-09-19T04:19:22;0.80;;;0.80;;
3066;SDS011;1544;48.834;9.194;2023-09-19T04:21:58;0.80;;;0.80;;
3066;SDS011;1544;48.834;9.194;2023-09-19T04:24:34;1.60;;;0.90;;
3066;SDS011;1544;48.834;9.194;2023-09-19T04:27:10;0.70;;;0.70;;
3066;SDS011;1544;48.834;9.194;2023-09-19T04:29:49;0.70;;;0.70;;
3066;SDS011;1544;48.834;9.194;2023-09-19T04:32:28;0.70;;;0.70;;
3066;SDS011;1544;48.834;9.194;2023-09-19T04:35:08;0.60;;;0.60;;
3066;SDS011;1544;48.834;9.194;2023-09-19T04:37:45;0.70;;;0.70;;
3066;SDS011;1544;48.834;9.194;2023-09-19T04:40:23;0.80;;;0.80;;
3066;SDS011;1544;48.834;9.194;2023-09-19T04:43:02;1.00;;;0.90;;
3066;SDS011;1544;48.834;9.194;2023-09-19T04:45:38;0.80;;;0.80;;
3066;SDS011;1544;48.834;9.194;2023-09-19T04:48:17;0.93;;;0.93;;
3066;SDS011;1544;48.834;9.194;2023-09-19T04:50:53;3.20;;;1.27;;
3066;SDS011;1544;48.834;9.194;2023-09-19T04:53:29;1.10;;;1.00;;
3066;SDS011;1544;48.834;9.194;2023-09-19T04:56:05;0.90;;;0.80;;
3066;SDS011;1544;48.834;9.194;2023-09-19T04:58:42;0.90;;;0.90;;
3066;SDS011;1544;48.834;9.194;2023-09-19T05:01:18;0.97;;;0.97;;
3066;SDS011;1544;48.834;9.194;2023-09-19T05:03:54;1.17;;;0.90;;
3066;SDS011;1544;48.834;9.194;2023-09-19T05:06:30;1.50;;;0.90;;
3066;SDS011;1544;48.834;9.194;2023-09-19T05:09:06;1.03;;;0.90;;
3066;SDS011;1544;48.834;9.194;2023-09-19T05:11:43;1.30;;;1.20;;
3066;SDS011;1544;48.834;9.194;2023-09-19T05:14:19;1.63;;;1.03;;
3066;SDS011;1544;48.834;9.194;2023-09-19T05:16:56;1.03;;;1.00;;
3066;SDS011;1544;48.834;9.194;2023-09-19T05:19:32;1.20;;;0.97;;
3066;SDS011;1544;48.834;9.194;2023-09-19T05:22:09;1.00;;;0.90;;
3066;SDS011;1544;48.834;9.194;2023-09-19T05:24:45;1.30;;;0.90;;
3066;SDS011;1544;48.834;9.194;2023-09-19T05:27:23;1.40;;;1.10;;
3066;SDS011;1544;48.834;9.194;2023-09-19T05:29:59;1.13;;;0.90;;
3066;SDS011;1544;48.834;9.194;2023-09-19T05:32:35;1.27;;;1.17;;
3066;SDS011;1544;48.834;9.194;2023-09-19T05:35:11;1.03;;;0.80;;
3066;SDS011;1544;48.834;9.194;2023-09-19T05:37:51;2.60;;;1.10;;
3066;SDS011;1544;48.834;9.194;2023-09-19T05:40:28;1.73;;;1.43;;
3066;SDS011;1544;48.834;9.194;2023-09-19T05:43:04;2.50;;;1.43;;
3066;SDS011;1544;48.834;9.194;2023-09-19T05:45:41;1.97;;;1.33;;
3066;SDS011;1544;48.834;9.194;2023-09-19T05:48:17;1.93;;;1.37;;
3066;SDS011;1544;48.834;9.194;2023-09-19T05:50:53;1.47;;;1.37;;
3066;SDS011;1544;48.834;9.194;2023-09-19T05:53:30;3.00;;;1.90;;
3066;SDS011;1544;48.834;9.194;2023-09-19T05:56:06;1.70;;;1.60;;
3066;SDS011;1544;48.834;9.194;2023-09-19T05:58:42;2.30;;;1.40;;
3066;SDS011;1544;48.834;9.194;2023-09-19T06:01:19;1.87;;;1.60;;
3066;SDS011;1544;48.834;9.194;2023-09-19T06:03:55;1.70;;;1.60;;
3066;SDS011;1544;48.834;9.194;2023-09-19T06:06:31;3.20;;;1.40;;
3066;SDS011;1544;48.834;9.194;2023-09-19T06:09:09;1.87;;;1.77;;
3066;SDS011;1544;48.834;9.194;2023-09-19T06:11:45;1.80;;;1.63;;
3066;SDS011;1544;48.834;9.194;2023-09-19T06:14:21;3.20;;;1.90;;
3066;SDS011;1544;48.834;9.194;2023-09-19T06:16:59;1.73;;;1.63;;
3066;SDS011;1544;48.834;9.194;2023-09-19T06:19:35;1.90;;;1.80;;
3066;SDS011;1544;48.834;9.194;2023-09-19T06:22:14;2.17;;;1.97;;
3066;SDS011;1544;48.834;9.194;2023-09-19T06:24:54;2.60;;;2.40;;
3066;SDS011;1544;48.834;9.194;2023-09-19T06:27:30;2.60;;;2.40;;
3066;SDS011;1544;48.834;9.194;2023-09-19T06:30:06;2.40;;;2.23;;
3066;SDS011;1544;48.834;9.194;2023-09-19T06:32:43;2.63;;;2.43;;
3066;SDS011;1544;48.834;9.194;2023-09-19T06:35:20;3.90;;;2.13;;
3066;SDS011;1544;48.834;9.194;2023-09-19T06:37:56;3.00;;;2.50;;
3066;SDS011;1544;48.834;9.194;2023-09-19T06:40:34;3.50;;;2.70;;
3066;SDS011;1544;48.834;9.194;2023-09-19T06:43:10;6.70;;;3.87;;
3066;SDS011;1544;48.834;9.194;2023-09-19T06:45:46;4.77;;;3.40;;
3066;SDS011;1544;48.834;9.194;2023-09-19T06:48:23;3.30;;;2.97;;
3066;SDS011;1544;48.834;9.194;2023-09-19T06:51:01;6.10;;;2.93;;
3066;SDS011;1544;48.834;9.194;2023-09-19T06:53:40;3.70;;;3.30;;
3066;SDS011;1544;48.834;9.194;2023-09-19T06:56:16;5.20;;;3.03;;
3066;SDS011;1544;48.834;9.194;2023-09-19T06:58:52;4.17;;;3.33;;
3066;SDS011;1544;48.834;9.194;2023-09-19T07:01:28;3.33;;;2.90;;
3066;SDS011;1544;48.834;9.194;2023-09-19T07:04:05;3.20;;;2.90;;
3066;SDS011;1544;48.834;9.194;2023-09-19T07:06:41;2.70;;;2.30;;
3066;SDS011;1544;48.834;9.194;2023-09-19T07:09:17;2.70;;;2.50;;
3066;SDS011;1544;48.834;9.194;2023-09-19T07:11:55;4.40;;;2.50;;
3066;SDS011;1544;48.834;9.194;2023-09-19T07:14:31;2.90;;;2.70;;
3066;SDS011;1544;48.834;9.194;2023-09-19T07:17:07;2.87;;;2.67;;
3066;SDS011;1544;48.834;9.194;2023-09-19T07:19:44;3.30;;;2.20;;
3066;SDS011;1544;48.834;9.194;2023-09-19T07:22:21;11.67;;;3.50;;
3066;SDS011;1544;48.834;9.194;2023-09-19T07:25:01;3.60;;;2.00;;
3066;SDS011;1544;48.834;9.194;2023-09-19T07:27:37;3.33;;;2.20;;
3066;SDS011;1544;48.834;9.194;2023-09-19T07:30:13;3.23;;;2.03;;
3066;SDS011;1544;48.834;9.194;2023-09-19T07:32:52;2.40;;;1.63;;
3066;SDS011;1544;48.834;9.194;2023-09-19T07:35:28;2.50;;;1.97;;
3066;SDS011;1544;48.834;9.194;2023-09-19T07:38:05;4.20;;;2.03;;
3066;SDS011;1544;48.834;9.194;2023-09-19T07:40:41;3.13;;;2.53;;
3066;SDS011;1544;48.834;9.194;2023-09-19T07:43:18;2.00;;;1.80;;
3066;SDS011;1544;48.834;9.194;2023-09-19T07:45:54;2.90;;;1.70;;
3066;SDS011;1544;48.834;9.194;2023-09-19T07:48:30;1.87;;;1.63;;
3066;SDS011;1544;48.834;9.194;2023-09-19T07:51:06;1.63;;;1.33;;
3066;SDS011;1544;48.834;9.194;2023-09-19T07:53:44;1.33;;;1.23;;
3066;SDS011;1544;48.834;9.194;2023-09-19T07:56:20;1.50;;;1.20;;
3066;SDS011;1544;48.834;9.194;2023-09-19T07:58:56;2.20;;;1.50;;
3066;SDS011;1544;48.834;9.194;2023-09-19T08:01:34;1.27;;;1.17;;
3066;SDS011;1544;48.834;9.194;2023-09-19T08:04:11;3.50;;;1.20;;
3066;SDS011;1544;48.834;9.194;2023-09-19T08:06:47;1.50;;;1.10;;
3066;SDS011;1544;48.834;9.194;2023-09-19T08:09:23;1.93;;;1.10;;
3066;SDS011;1544;48.834;9.194;2023-09-19T08:12:00;3.37;;;1.30;;
3066;SDS011;1544;48.834;9.194;2023-09-19T08:14:39;1.20;;;1.10;;
3066;SDS011;1544;48.834;9.194;2023-09-19T08:17:17;2.37;;;1.10;;
3066;SDS011;1544;48.834;9.194;2023-09-19T08:19:54;3.00;;;1.40;;
3066;SDS011;1544;48.834;9.194;2023-09-19T08:22:30;2.20;;;1.20;;
3066;SDS011;1544;48.834;9.194;2023-09-19T08:25:10;1.47;;;1.10;;
3066;SDS011;1544;48.834;9.194;2023-09-19T08:27:46;1.13;;;1.03;;
3066;SDS011;1544;48.834;9.194;2023-09-19T08:30:24;2.50;;;1.17;;
3066;SDS011;1544;48.834;9.194;2023-09-19T08:33:03;3.57;;;1.07;;
3066;SDS011;1544;48.834;9.194;2023-09-19T08:35:41;3.67;;;1.10;;
3066;SDS011;1544;48.834;9.194;2023-09-19T08:38:18;1.73;;;1.00;;
3066;SDS011;1544;48.834;9.194;2023-09-19T08:40:54;2.00;;;1.30;;
3066;SDS011;1544;48.834;9.194;2023-09-19T08:43:32;0.90;;;0.90;;
3066;SDS011;1544;48.834;9.194;2023-09-19T08:46:10;2.80;;;1.00;;
3066;SDS011;1544;48.834;9.194;2023-09-19T08:48:52;1.83;;;1.10;;
3066;SDS011;1544;48.834;9.194;2023-09-19T08:51:42;1.40;;;1.20;;
3066;SDS011;1544;48.834;9.194;2023-09-19T08:54:24;1.27;;;0.90;;
3066;SDS011;1544;48.834;9.194;2023-09-19T08:57:05;2.60;;;1.20;;
3066;SDS011;1544;48.834;9.194;2023-09-19T08:59:47;1.27;;;0.97;;
3066;SDS011;1544;48.834;9.194;2023-09-19T09:02:27;2.90;;;1.00;;
3066;SDS011;1544;48.834;9.194;2023-09-19T09:05:05;1.10;;;0.90;;
3066;SDS011;1544;48.834;9.194;2023-09-19T09:07:51;1.20;;;1.10;;
3066;SDS011;1544;48.834;9.194;2023-09-19T09:10:31;1.03;;;1.00;;
3066;SDS011;1544;48.834;9.194;2023-09-19T09:13:09;1.10;;;0.77;;
3066;SDS011;1544;48.834;9.194;2023-09-19T09:15:45;1.10;;;0.90;;
3066;SDS011;1544;48.834;9.194;2023-09-19T09:18:23;1.33;;;0.90;;
3066;SDS011;1544;48.834;9.194;2023-09-19T09:21:00;2.50;;;0.90;;
3066;SDS011;1544;48.834;9.194;2023-09-19T09:23:36;1.17;;;0.90;;
3066;SDS011;1544;48.834;9.194;2023-09-19T09:26:14;2.50;;;0.90;;
3066;SDS011;1544;48.834;9.194;2023-09-19T09:28:50;0.87;;;0.87;;
3066;SDS011;1544;48.834;9.194;2023-09-19T09:31:27;0.90;;;0.90;;
3066;SDS011;1544;48.834;9.194;2023-09-19T09:34:03;0.77;;;0.77;;
3066;SDS011;1544;48.834;9.194;2023-09-19T09:36:40;0.93;;;0.93;;
3066;SDS011;1544;48.834;9.194;2023-09-19T09:39:31;1.90;;;1.07;;
3066;SDS011;1544;48.834;9.194;2023-09-19T09:42:07;0.83;;;0.83;;
3066;SDS011;1544;48.834;9.194;2023-09-19T09:44:45;1.20;;;0.90;;
3066;SDS011;1544;48.834;9.194;2023-09-19T09:47:48;1.00;;;0.80;;
3066;SDS011;1544;48.834;9.194;2023-09-19T09:50:34;0.97;;;0.80;;
3066;SDS011;1544;48.834;9.194;2023-09-19T09:56:04;0.83;;;0.80;;
3066;SDS011;1544;48.834;9.194;2023-09-19T10:01:25;1.90;;;0.90;;
3066;SDS011;1544;48.834;9.194;2023-09-19T10:04:02;1.97;;;1.07;;
3066;SDS011;1544;48.834;9.194;2023-09-19T10:06:40;2.60;;;1.03;;
3066;SDS011;1544;48.834;9.194;2023-09-19T10:09:22;1.97;;;0.90;;
3066;SDS011;1544;48.834;9.194;2023-09-19T10:12:06;2.30;;;0.80;;
3066;SDS011;1544;48.834;9.194;2023-09-19T10:14:44;1.17;;;0.63;;
3066;SDS011;1544;48.834;9.194;2023-09-19T10:17:22;2.03;;;0.80;;
3066;SDS011;1544;48.834;9.194;2023-09-19T10:20:00;1.10;;;0.90;;
3066;SDS011;1544;48.834;9.194;2023-09-19T10:22:46;1.00;;;0.90;;
3066;SDS011;1544;48.834;9.194;2023-09-19T10:25:33;0.80;;;0.80;;
3066;SDS011;1544;48.834;9.194;2023-09-19T10:28:21;1.20;;;0.90;;
3066;SDS011;1544;48.834;9.194;2023-09-19T10:30:59;0.93;;;0.90;;
3066;SDS011;1544;48.834;9.194;2023-09-19T10:33:37;1.17;;;0.73;;
3066;SDS011;1544;48.834;9.194;2023-09-19T10:36:15;0.80;;;0.80;;
3066;SDS011;1544;48.834;9.194;2023-09-19T10:38:54;2.37;;;0.90;;
3066;SDS011;1544;48.834;9.194;2023-09-19T10:41:32;1.00;;;0.90;;
3066;SDS011;1544;48.834;9.194;2023-09-19T10:44:10;0.93;;;0.83;;
3066;SDS011;1544;48.834;9.194;2023-09-19T10:46:46;1.60;;;0.80;;
3066;SDS011;1544;48.834;9.194;2023-09-19T10:49:23;0.80;;;0.80;;
3066;SDS011;1544;48.834;9.194;2023-09-19T10:52:00;1.40;;;0.90;;
3066;SDS011;1544;48.834;9.194;2023-09-19T10:54:37;1.10;;;0.80;;
3066;SDS011;1544;48.834;9.194;2023-09-19T10:57:21;1.33;;;0.90;;
3066;SDS011;1544;48.834;9.194;2023-09-19T11:00:03;0.80;;;0.73;;
3066;SDS011;1544;48.834;9.194;2023-09-19T11:03:17;1.60;;;0.87;;
3066;SDS011;1544;48.834;9.194;2023-09-19T11:06:09;1.27;;;0.77;;
3066;SDS011;1544;48.834;9.194;2023-09-19T11:08:59;1.30;;;1.10;;
3066;SDS011;1544;48.834;9.194;2023-09-19T11:11:45;2.20;;;0.77;;
3066;SDS011;1544;48.834;9.194;2023-09-19T11:14:37;0.70;;;0.70;;
3066;SDS011;1544;48.834;9.194;2023-09-19T11:30:42;1.20;;;0.70;;
3066;SDS011;1544;48.834;9.194;2023-09-19T11:36:12;1.80;;;0.83;;
3066;SDS011;1544;48.834;9.194;2023-09-19T11:39:00;0.90;;;0.90;;
3066;SDS011;1544;48.834;9.194;2023-09-19T11:41:43;0.60;;;0.60;;
3066;SDS011;1544;48.834;9.194;2023-09-19T11:47:02;1.00;;;0.83;;
3066;SDS011;1544;48.834;9.194;2023-09-19T11:49:40;1.57;;;0.80;;
3066;SDS011;1544;48.834;9.194;2023-09-19T11:52:23;0.90;;;0.80;;
3066;SDS011;1544;48.834;9.194;2023-09-19T11:55:00;1.00;;;0.80;;
3066;SDS011;1544;48.834;9.194;2023-09-19T11:57:37;1.47;;;0.60;;
3066;SDS011;1544;48.834;9.194;2023-09-19T12:00:17;0.80;;;0.73;;
3066;SDS011;1544;48.834;9.194;2023-09-19T12:02:55;1.43;;;1.03;;
3066;SDS011;1544;48.834;9.194;2023-09-19T12:05:46;0.90;;;0.80;;
3066;SDS011;1544;48.834;9.194;2023-09-19T12:08:23;1.73;;;0.70;;
3066;SDS011;1544;48.834;9.194;2023-09-19T12:10:59;0.90;;;0.90;;
3066;SDS011;1544;48.834;9.194;2023-09-19T12:13:35;1.00;;;0.90;;
3066;SDS011;1544;48.834;9.194;2023-09-19T12:16:14;1.20;;;0.80;;
3066;SDS011;1544;48.834;9.194;2023-09-19T12:18:59;1.40;;;0.70;;
3066;SDS011;1544;48.834;9.194;2023-09-19T12:21:59;1.17;;;0.70;;
3066;SDS011;1544;48.834;9.194;2023-09-19T12:24:40;1.13;;;0.90;;
3066;SDS011;1544;48.834;9.194;2023-09-19T12:27:19;1.57;;;0.80;;
3066;SDS011;1544;48.834;9.194;2023-09-19T12:29:57;1.40;;;0.80;;
3066;SDS011;1544;48.834;9.194;2023-09-19T12:32:44;1.93;;;0.90;;
3066;SDS011;1544;48.834;9.194;2023-09-19T12:35:27;1.03;;;0.80;;
3066;SDS011;1544;48.834;9.194;2023-09-19T12:38:11;1.23;;;0.67;;
3066;SDS011;1544;48.834;9.194;2023-09-19T12:41:01;0.80;;;0.80;;
3066;SDS011;1544;48.834;9.194;2023-09-19T12:43:38;2.40;;;0.80;;
3066;SDS011;1544;48.834;9.194;2023-09-19T12:46:19;1.30;;;0.70;;
3066;SDS011;1544;48.834;9.194;2023-09-19T12:49:17;1.13;;;0.73;;
3066;SDS011;1544;48.834;9.194;2023-09-19T12:51:54;1.00;;;0.80;;
3066;SDS011;1544;48.834;9.194;2023-09-19T12:54:39;0.70;;;0.70;;
3066;SDS011;1544;48.834;9.194;2023-09-19T12:57:24;0.87;;;0.87;;
3066;SDS011;1544;48.834;9.194;2023-09-19T13:00:02;1.10;;;0.60;;
3066;SDS011;1544;48.834;9.194;2023-09-19T13:06:04;0.97;;;0.80;;
3066;SDS011;1544;48.834;9.194;2023-09-19T13:08:40;0.77;;;0.77;;
3066;SDS011;1544;48.834;9.194;2023-09-19T13:11:19;0.90;;;0.80;;
3066;SDS011;1544;48.834;9.194;2023-09-19T13:19:55;1.43;;;0.80;;
3066;SDS011;1544;48.834;9.194;2023-09-19T13:22:42;0.87;;;0.83;;
3066;SDS011;1544;48.834;9.194;2023-09-19T13:25:24;1.53;;;0.90;;
3066;SDS011;1544;48.834;9.194;2023-09-19T13:28:04;1.43;;;0.80;;
3066;SDS011;1544;48.834;9.194;2023-09-19T13:30:41;0.80;;;0.80;;
3066;SDS011;1544;48.834;9.194;2023-09-19T13:33:19;1.30;;;0.80;;
3066;SDS011;1544;48.834;9.194;2023-09-19T13:35:56;1.33;;;0.80;;
3066;SDS011;1544;48.834;9.194;2023-09-19T13:38:41;2.07;;;0.87;;
3066;SDS011;1544;48.834;9.194;2023-09-19T13:41:22;0.70;;;0.70;;
3066;SDS011;1544;48.834;9.194;2023-09-19T13:44:00;1.53;;;0.97;;
3066;SDS011;1544;48.834;9.194;2023-09-19T13:46:37;1.37;;;0.70;;
3066;SDS011;1544;48.834;9.194;2023-09-19T13:49:13;1.60;;;0.90;;
3066;SDS011;1544;48.834;9.194;2023-09-19T13:51:49;1.00;;;0.80;;
3066;SDS011;1544;48.834;9.194;2023-09-19T13:54:25;0.90;;;0.90;;
3066;SDS011;1544;48.834;9.194;2023-09-19T13:57:01;1.10;;;0.90;;
3066;SDS011;1544;48.834;9.194;2023-09-19T13:59:37;1.87;;;0.80;;
3066;SDS011;1544;48.834;9.194;2023-09-19T14:02:13;0.97;;;0.80;;
3066;SDS011;1544;48.834;9.194;2023-09-19T14:04:49;1.00;;;0.93;;
3066;SDS011;1544;48.834;9.194;2023-09-19T14:07:27;0.90;;;0.90;;
3066;SDS011;1544;48.834;9.194;2023-09-19T14:10:03;1.23;;;0.70;;
3066;SDS011;1544;48.834;9.194;2023-09-19T14:12:44;0.87;;;0.80;;
3066;SDS011;1544;48.834;9.194;2023-09-19T14:15:20;1.53;;;0.80;;
3066;SDS011;1544;48.834;9.194;2023-09-19T14:18:04;1.00;;;0.90;;
3066;SDS011;1544;48.834;9.194;2023-09-19T14:20:40;0.70;;;0.70;;
3066;SDS011;1544;48.834;9.194;2023-09-19T14:23:17;0.80;;;0.80;;
3066;SDS011;1544;48.834;9.194;2023-09-19T14:25:53;1.00;;;0.90;;
3066;SDS011;1544;48.834;9.194;2023-09-19T14:28:29;1.57;;;0.90;;
3066;SDS011;1544;48.834;9.194;2023-09-19T14:31:08;0.77;;;0.77;;
3066;SDS011;1544;48.834;9.194;2023-09-19T14:33:46;1.80;;;0.80;;
3066;SDS011;1544;48.834;9.194;2023-09-19T14:36:30;0.80;;;0.80;;
3066;SDS011;1544;48.834;9.194;2023-09-19T14:39:07;1.20;;;1.00;;
3066;SDS011;1544;48.834;9.194;2023-09-19T14:41:43;0.97;;;0.70;;
3066;SDS011;1544;48.834;9.194;2023-09-19T14:44:19;0.77;;;0.70;;
3066;SDS011;1544;48.834;9.194;2023-09-19T14:46:55;0.90;;;0.80;;
3066;SDS011;1544;48.834;9.194;2023-09-19T14:49:34;1.00;;;0.90;;
3066;SDS011;1544;48.834;9.194;2023-09-19T14:52:13;1.03;;;0.90;;
3066;SDS011;1544;48.834;9.194;2023-09-19T14:54:51;0.83;;;0.83;;
3066;SDS011;1544;48.834;9.194;2023-09-19T14:57:27;1.00;;;1.00;;
3066;SDS011;1544;48.834;9.194;2023-09-19T15:00:04;0.80;;;0.80;;
3066;SDS011;1544;48.834;9.194;2023-09-19T15:02:47;0.87;;;0.87;;
3066;SDS011;1544;48.834;9.194;2023-09-19T15:05:25;0.67;;;0.67;;
3066;SDS011;1544;48.834;9.194;2023-09-19T15:08:04;1.00;;;0.90;;
3066;SDS011;1544;48.834;9.194;2023-09-19T15:10:41;0.70;;;0.70;;
3066;SDS011;1544;48.834;9.194;2023-09-19T15:13:28;0.90;;;0.80;;
3066;SDS011;1544;48.834;9.194;2023-09-19T15:16:05;0.70;;;0.70;;
3066;SDS011;1544;48.834;9.194;2023-09-19T15:18:46;2.40;;;0.83;;
3066;SDS011;1544;48.834;9.194;2023-09-19T15:21:27;1.17;;;0.80;;
3066;SDS011;1544;48.834;9.194;2023-09-19T15:24:05;1.03;;;0.80;;
3066;SDS011;1544;48.834;9.194;2023-09-19T15:26:45;0.83;;;0.80;;
3066;SDS011;1544;48.834;9.194;2023-09-19T15:29:21;1.20;;;0.87;;
3066;SDS011;1544;48.834;9.194;2023-09-19T15:31:58;0.70;;;0.70;;
3066;SDS011;1544;48.834;9.194;2023-09-19T15:34:37;1.27;;;0.90;;
3066;SDS011;1544;48.834;9.194;2023-09-19T15:37:13;1.13;;;0.90;;
3066;SDS011;1544;48.834;9.194;2023-09-19T15:39:49;0.70;;;0.70;;
3066;SDS011;1544;48.834;9.194;2023-09-19T15:42:25;1.77;;;0.80;;
3066;SDS011;1544;48.834;9.194;2023-09-19T15:45:01;0.70;;;0.70;;
3066;SDS011;1544;48.834;9.194;2023-09-19T15:47:37;0.80;;;0.60;;
3066;SDS011;1544;48.834;9.194;2023-09-19T15:50:13;0.60;;;0.60;;
3066;SDS011;1544;48.834;9.194;2023-09-19T15:52:53;1.27;;;0.80;;
3066;SDS011;1544;48.834;9.194;2023-09-19T15:55:30;1.03;;;0.70;;
3066;SDS011;1544;48.834;9.194;2023-09-19T15:58:07;1.00;;;0.63;;
3066;SDS011;1544;48.834;9.194;2023-09-19T16:00:43;0.70;;;0.70;;
3066;SDS011;1544;48.834;9.194;2023-09-19T16:03:19;0.80;;;0.80;;
3066;SDS011;1544;48.834;9.194;2023-09-19T16:05:56;1.67;;;0.90;;
3066;SDS011;1544;48.834;9.194;2023-09-19T16:08:32;1.37;;;0.87;;
3066;SDS011;1544;48.834;9.194;2023-09-19T16:11:10;1.20;;;0.70;;
3066;SDS011;1544;48.834;9.194;2023-09-19T16:13:47;1.20;;;0.80;;
3066;SDS011;1544;48.834;9.194;2023-09-19T16:16:26;0.90;;;0.90;;
3066;SDS011;1544;48.834;9.194;2023-09-19T16:19:05;0.63;;;0.63;;
3066;SDS011;1544;48.834;9.194;2023-09-19T16:21:46;1.17;;;0.70;;
3066;SDS011;1544;48.834;9.194;2023-09-19T16:24:22;1.00;;;0.90;;
3066;SDS011;1544;48.834;9.194;2023-09-19T16:26:58;0.80;;;0.80;;
3066;SDS011;1544;48.834;9.194;2023-09-19T16:29:34;1.87;;;1.00;;
3066;SDS011;1544;48.834;9.194;2023-09-19T16:32:10;0.70;;;0.70;;
3066;SDS011;1544;48.834;9.194;2023-09-19T16:34:46;0.80;;;0.80;;
3066;SDS011;1544;48.834;9.194;2023-09-19T16:37:22;0.70;;;0.70;;
3066;SDS011;1544;48.834;9.194;2023-09-19T16:39:59;0.80;;;0.80;;
3066;SDS011;1544;48.834;9.194;2023-09-19T16:42:35;0.93;;;0.83;;
3066;SDS011;1544;48.834;9.194;2023-09-19T16:45:14;0.83;;;0.83;;
3066;SDS011;1544;48.834;9.194;2023-09-19T16:47:50;0.87;;;0.87;;
3066;SDS011;1544;48.834;9.194;2023-09-19T16:50:26;0.70;;;0.70;;
3066;SDS011;1544;48.834;9.194;2023-09-19T16:53:03;1.00;;;0.90;;
3066;SDS011;1544;48.834;9.194;2023-09-19T16:55:39;1.20;;;0.80;;
3066;SDS011;1544;48.834;9.194;2023-09-19T16:58:16;0.70;;;0.70;;
3066;SDS011;1544;48.834;9.194;2023-09-19T17:00:56;0.70;;;0.70;;
3066;SDS011;1544;48.834;9.194;2023-09-19T17:03:32;0.83;;;0.70;;
3066;SDS011;1544;48.834;9.194;2023-09-19T17:06:11;0.70;;;0.70;;
3066;SDS011;1544;48.834;9.194;2023-09-19T17:08:50;1.27;;;0.80;;
3066;SDS011;1544;48.834;9.194;2023-09-19T17:11:26;1.70;;;0.80;;
3066;SDS011;1544;48.834;9.194;2023-09-19T17:14:02;0.77;;;0.70;;
3066;SDS011;1544;48.834;9.194;2023-09-19T17:16:39;0.80;;;0.80;;
3066;SDS011;1544;48.834;9.194;2023-09-19T17:19:17;2.10;;;1.00;;